createdAt,value
2018-04-30T00:00:47.460Z,2.67
2018-04-30T00:03:14.940Z,3.10
2018-04-30T00:05:43.202Z,3.57
2018-04-30T00:08:10.660Z,2.80
2018-04-30T00:10:38.131Z,3.10
2018-04-30T00:13:06.371Z,2.50
2018-04-30T00:15:33.866Z,3.17
2018-04-30T00:18:02.122Z,2.77
2018-04-30T00:20:30.344Z,3.10
2018-04-30T00:22:57.832Z,3.00
2018-04-30T00:25:25.319Z,2.80
2018-04-30T00:27:53.565Z,4.00
2018-04-30T00:30:21.220Z,2.90
2018-04-30T00:32:48.695Z,3.00
2018-04-30T00:35:16.178Z,2.73
2018-04-30T00:37:44.412Z,3.00
2018-04-30T00:40:11.889Z,2.93
2018-04-30T00:42:39.376Z,3.10
2018-04-30T00:45:06.840Z,3.10
2018-04-30T00:47:34.338Z,3.10
2018-04-30T00:50:01.923Z,3.30
2018-04-30T00:52:29.390Z,3.80
2018-04-30T00:55:01.674Z,4.00
2018-04-30T00:57:29.142Z,4.13
2018-04-30T00:59:56.623Z,4.90
2018-04-30T01:02:24.088Z,4.40
2018-04-30T01:04:51.543Z,4.63
2018-04-30T01:07:19.020Z,4.03
2018-04-30T01:09:46.507Z,4.30
2018-04-30T01:12:36.286Z,3.40
2018-04-30T01:15:03.830Z,4.73
2018-04-30T01:17:31.324Z,3.80
2018-04-30T01:19:58.822Z,4.00
2018-04-30T01:22:26.282Z,3.70
2018-04-30T01:24:53.967Z,2.53
2018-04-30T01:27:21.451Z,2.33
2018-04-30T01:29:48.935Z,2.63
2018-04-30T01:32:16.403Z,2.47
2018-04-30T01:34:44.357Z,2.60
2018-04-30T01:37:11.841Z,2.23
2018-04-30T01:39:39.312Z,2.30
2018-04-30T01:42:06.861Z,2.43
2018-04-30T01:44:34.296Z,2.10
2018-04-30T01:47:01.763Z,2.47
2018-04-30T01:49:29.260Z,1.80
2018-04-30T01:51:56.721Z,2.10
2018-04-30T01:54:24.215Z,1.80
2018-04-30T01:56:51.676Z,1.60
2018-04-30T01:59:19.154Z,1.60
2018-04-30T02:01:46.624Z,2.07
2018-04-30T02:04:14.102Z,1.63
2018-04-30T02:06:41.570Z,1.63
2018-04-30T02:09:09.041Z,1.70
2018-04-30T02:11:36.518Z,1.70
2018-04-30T02:14:04.004Z,1.57
2018-04-30T02:16:31.463Z,1.40
2018-04-30T02:18:58.930Z,1.37
2018-04-30T02:21:26.457Z,1.90
2018-04-30T02:23:53.924Z,1.90
2018-04-30T02:26:21.459Z,1.70
2018-04-30T02:28:48.909Z,2.20
2018-04-30T02:31:16.404Z,1.30
2018-04-30T02:33:44.049Z,1.30
2018-04-30T02:36:11.361Z,1.50
2018-04-30T02:38:38.849Z,1.40
2018-04-30T02:41:06.334Z,2.17
2018-04-30T02:43:33.811Z,1.87
2018-04-30T02:46:01.301Z,3.50
2018-04-30T02:48:29.704Z,2.50
2018-04-30T02:50:57.197Z,2.27
2018-04-30T02:53:24.684Z,1.97
2018-04-30T02:55:52.935Z,2.23
2018-04-30T02:58:20.442Z,1.70
2018-04-30T03:00:47.916Z,1.67
2018-04-30T03:03:15.445Z,1.40
2018-04-30T03:05:42.932Z,1.53
2018-04-30T03:08:10.454Z,1.73
2018-04-30T03:10:38.693Z,1.70
2018-04-30T03:13:06.157Z,2.67
2018-04-30T03:15:33.638Z,1.40
2018-04-30T03:18:01.103Z,1.17
2018-04-30T03:20:29.344Z,1.30
2018-04-30T03:22:56.805Z,1.43
2018-04-30T03:25:24.267Z,1.00
2018-04-30T03:27:51.761Z,1.20
2018-04-30T03:30:20.000Z,1.10
2018-04-30T03:32:47.470Z,1.30
2018-04-30T03:35:15.700Z,1.00
2018-04-30T03:37:43.154Z,1.10
2018-04-30T03:40:10.661Z,1.13
2018-04-30T03:42:38.116Z,1.93
2018-04-30T03:45:06.378Z,1.40
2018-04-30T03:47:33.839Z,1.57
2018-04-30T03:50:01.314Z,1.60
2018-04-30T03:52:28.800Z,1.73
2018-04-30T03:54:56.290Z,1.77
2018-04-30T03:57:23.797Z,1.80
2018-04-30T03:59:51.252Z,1.90
2018-04-30T04:02:30.602Z,2.23
2018-04-30T04:05:09.848Z,1.90
2018-04-30T04:07:37.345Z,2.33
2018-04-30T04:10:04.797Z,2.27
2018-04-30T04:12:32.307Z,3.10
2018-04-30T04:14:59.794Z,3.97
2018-04-30T04:17:27.251Z,3.80
2018-04-30T04:19:54.738Z,3.87
2018-04-30T04:22:22.288Z,3.33
2018-04-30T04:24:49.750Z,3.37
2018-04-30T04:27:17.238Z,3.40
2018-04-30T04:29:45.442Z,3.40
2018-04-30T04:32:12.913Z,3.30
2018-04-30T04:34:40.374Z,2.90
2018-04-30T04:37:07.852Z,2.87
2018-04-30T04:39:35.355Z,2.60
2018-04-30T04:42:02.844Z,3.30
2018-04-30T04:44:30.331Z,2.73
2018-04-30T04:46:57.809Z,2.33
2018-04-30T04:49:26.071Z,2.50
2018-04-30T04:51:53.552Z,2.80
2018-04-30T04:54:21.025Z,2.93
2018-04-30T04:56:48.538Z,2.40
2018-04-30T04:59:16.006Z,2.50
2018-04-30T05:01:43.503Z,2.30
2018-04-30T05:04:10.987Z,2.30
2018-04-30T05:06:38.455Z,1.90
2018-04-30T05:09:05.941Z,1.73
2018-04-30T05:11:34.186Z,2.00
2018-04-30T05:14:01.648Z,2.13
2018-04-30T05:16:29.125Z,2.30
2018-04-30T05:18:56.634Z,2.10
2018-04-30T05:21:24.119Z,2.53
2018-04-30T05:23:52.130Z,2.70
2018-04-30T05:26:19.637Z,3.13
2018-04-30T05:28:47.161Z,2.80
2018-04-30T05:31:14.650Z,2.60
2018-04-30T05:33:42.149Z,2.83
2018-04-30T05:36:10.407Z,3.10
2018-04-30T05:38:37.894Z,2.90
2018-04-30T05:41:05.372Z,2.60
2018-04-30T05:43:32.852Z,3.30
2018-04-30T05:46:00.340Z,2.70
2018-04-30T05:48:27.811Z,2.87
2018-04-30T05:50:56.062Z,2.93
2018-04-30T05:53:23.550Z,3.17
2018-04-30T05:55:51.797Z,3.07
2018-04-30T05:58:19.317Z,2.80
2018-04-30T06:00:46.778Z,2.43
2018-04-30T06:03:14.357Z,2.60
2018-04-30T06:05:41.866Z,2.40
2018-04-30T06:08:09.378Z,2.60
2018-04-30T06:10:37.846Z,2.50
2018-04-30T06:13:05.923Z,1.50
2018-04-30T06:15:33.410Z,1.87
2018-04-30T06:18:00.954Z,1.80
2018-04-30T06:20:28.438Z,1.90
2018-04-30T06:23:00.588Z,1.37
2018-04-30T06:25:28.289Z,1.80
2018-04-30T06:27:55.769Z,1.63
2018-04-30T06:30:23.246Z,1.90
2018-04-30T06:32:50.711Z,1.70
2018-04-30T06:35:18.237Z,2.27
2018-04-30T06:37:45.699Z,2.10
2018-04-30T06:40:13.167Z,2.00
2018-04-30T06:42:40.673Z,2.00
2018-04-30T06:45:08.148Z,1.77
2018-04-30T06:47:35.661Z,1.90
2018-04-30T06:50:03.130Z,1.70
2018-04-30T06:52:30.614Z,1.90
2018-04-30T06:54:58.110Z,1.80
2018-04-30T06:57:25.579Z,1.50
2018-04-30T06:59:53.069Z,1.57
2018-04-30T07:02:20.543Z,1.87
2018-04-30T07:04:48.081Z,1.80
2018-04-30T07:07:15.598Z,1.50
2018-04-30T07:09:43.330Z,1.57
2018-04-30T07:12:10.612Z,1.53
2018-04-30T07:14:38.854Z,1.40
2018-04-30T07:17:07.260Z,1.33
2018-04-30T07:19:34.812Z,1.70
2018-04-30T07:22:02.316Z,1.43
2018-04-30T07:24:29.805Z,1.57
2018-04-30T07:26:58.187Z,1.60
2018-04-30T07:29:25.664Z,1.40
2018-04-30T07:31:53.166Z,1.40
2018-04-30T07:34:20.665Z,1.40
2018-04-30T07:36:48.155Z,1.50
2018-04-30T07:39:15.661Z,1.30
2018-04-30T07:41:43.145Z,1.30
2018-04-30T07:44:10.638Z,1.20
2018-04-30T07:46:38.109Z,2.07
2018-04-30T07:49:05.591Z,1.23
2018-04-30T07:51:33.080Z,1.30
2018-04-30T07:54:00.554Z,1.00
2018-04-30T07:56:28.041Z,1.00
2018-04-30T07:58:55.499Z,1.30
2018-04-30T08:01:23.002Z,1.23
2018-04-30T08:03:50.486Z,1.20
2018-04-30T08:06:18.725Z,1.20
2018-04-30T08:08:46.202Z,1.53
2018-04-30T08:11:13.664Z,1.20
2018-04-30T08:13:41.151Z,1.23
2018-04-30T08:16:08.634Z,1.20
2018-04-30T08:18:36.100Z,1.30
2018-04-30T08:21:03.573Z,1.20
2018-04-30T08:23:31.822Z,1.30
2018-04-30T08:25:59.318Z,1.30
2018-04-30T08:28:26.834Z,1.10
2018-04-30T08:30:54.309Z,1.17
2018-04-30T08:33:22.613Z,1.47
2018-04-30T08:35:50.087Z,1.10
2018-04-30T08:38:17.590Z,1.20
2018-04-30T08:40:45.073Z,1.20
2018-04-30T08:43:12.554Z,1.30
2018-04-30T08:45:40.044Z,1.30
2018-04-30T08:48:07.553Z,1.23
2018-04-30T08:50:35.091Z,1.40
2018-04-30T08:53:02.605Z,1.47
2018-04-30T08:55:30.094Z,1.37
2018-04-30T08:57:57.607Z,1.30
2018-04-30T09:00:25.144Z,1.50
2018-04-30T09:02:52.588Z,1.80
2018-04-30T09:05:20.081Z,1.67
2018-04-30T09:07:47.585Z,1.30
2018-04-30T09:10:15.068Z,1.80
2018-04-30T09:12:42.532Z,1.70
2018-04-30T09:15:10.026Z,1.83
2018-04-30T09:17:37.516Z,2.10
2018-04-30T09:20:04.984Z,2.80
2018-04-30T09:22:33.255Z,1.90
2018-04-30T09:25:00.733Z,1.60
2018-04-30T09:27:29.003Z,1.40
2018-04-30T09:29:57.261Z,1.40
2018-04-30T09:32:24.735Z,1.30
2018-04-30T09:34:53.033Z,1.23
2018-04-30T09:37:21.282Z,1.33
2018-04-30T09:39:49.545Z,1.30
2018-04-30T09:42:17.046Z,0.93
2018-04-30T09:44:44.539Z,1.10
2018-04-30T09:47:12.061Z,1.10
2018-04-30T09:49:39.570Z,1.40
2018-04-30T09:52:07.065Z,1.00
2018-04-30T09:54:34.573Z,1.00
2018-04-30T09:57:02.035Z,1.10
2018-04-30T09:59:29.532Z,1.30
2018-04-30T10:01:57.780Z,1.13
2018-04-30T10:04:25.251Z,1.10
2018-04-30T10:06:53.506Z,1.30
2018-04-30T10:09:21.006Z,1.40
2018-04-30T10:11:48.490Z,1.00
2018-04-30T10:14:16.002Z,1.10
2018-04-30T10:16:44.280Z,1.20
2018-04-30T10:19:12.569Z,0.87
2018-04-30T10:21:40.826Z,1.10
2018-04-30T10:24:09.103Z,1.27
2018-04-30T10:26:37.338Z,1.43
2018-04-30T10:29:04.891Z,1.40
2018-04-30T10:31:32.411Z,1.00
2018-04-30T10:34:00.656Z,1.20
2018-04-30T10:36:28.138Z,0.90
2018-04-30T10:38:56.377Z,1.20
2018-04-30T10:41:23.883Z,1.20
2018-04-30T10:43:51.348Z,1.10
2018-04-30T10:46:18.818Z,1.43
2018-04-30T10:48:46.338Z,1.10
2018-04-30T10:51:14.564Z,1.50
2018-04-30T10:53:42.076Z,1.10
2018-04-30T10:56:09.593Z,1.00
2018-04-30T10:58:37.066Z,1.30
2018-04-30T11:01:04.566Z,1.20
2018-04-30T11:03:32.047Z,1.10
2018-04-30T11:05:59.531Z,0.90
2018-04-30T11:08:27.008Z,1.00
2018-04-30T11:10:54.462Z,0.90
2018-04-30T11:13:21.969Z,1.03
2018-04-30T11:15:49.482Z,1.03
2018-04-30T11:18:17.715Z,1.20
2018-04-30T11:20:45.189Z,1.13
2018-04-30T11:23:12.692Z,1.10
2018-04-30T11:25:40.982Z,1.20
2018-04-30T11:28:08.525Z,1.30
2018-04-30T11:30:35.937Z,1.03
2018-04-30T11:33:03.524Z,0.90
2018-04-30T11:35:31.896Z,1.10
2018-04-30T11:37:59.451Z,0.90
2018-04-30T11:40:26.944Z,0.90
2018-04-30T11:42:54.546Z,1.03
2018-04-30T11:45:22.068Z,1.00
2018-04-30T11:47:49.553Z,1.10
2018-04-30T11:50:17.066Z,1.13
2018-04-30T11:52:45.329Z,1.13
2018-04-30T11:55:12.819Z,1.27
2018-04-30T11:57:40.326Z,1.30
2018-04-30T12:00:07.816Z,1.17
2018-04-30T12:02:35.327Z,1.00
2018-04-30T12:05:07.314Z,1.13
2018-04-30T12:07:42.666Z,1.00
2018-04-30T12:10:17.097Z,1.40
2018-04-30T12:12:54.980Z,1.50
2018-04-30T12:15:22.891Z,1.53
2018-04-30T12:17:50.407Z,1.30
2018-04-30T12:20:18.690Z,1.10
2018-04-30T12:22:46.981Z,1.27
2018-04-30T12:25:14.483Z,1.07
2018-04-30T12:27:41.961Z,1.20
2018-04-30T12:30:11.199Z,1.00
2018-04-30T12:32:38.731Z,1.20
2018-04-30T12:35:06.208Z,1.30
2018-04-30T12:37:33.713Z,1.20
2018-04-30T12:40:01.248Z,1.30
2018-04-30T12:42:28.738Z,1.20
2018-04-30T12:44:56.225Z,1.30
2018-04-30T12:47:23.719Z,1.60
2018-04-30T12:49:51.274Z,1.40
2018-04-30T12:52:18.725Z,1.33
2018-04-30T12:54:46.221Z,1.40
2018-04-30T12:57:13.719Z,1.50
2018-04-30T12:59:41.211Z,1.30
2018-04-30T13:02:08.711Z,1.57
2018-04-30T13:04:36.198Z,1.73
2018-04-30T13:07:04.524Z,1.33
2018-04-30T13:09:32.020Z,1.20
2018-04-30T13:12:00.285Z,1.53
2018-04-30T13:14:27.771Z,1.40
2018-04-30T13:16:55.284Z,1.73
2018-04-30T13:19:22.793Z,1.40
2018-04-30T13:21:50.310Z,1.40
2018-04-30T13:24:17.788Z,1.17
2018-04-30T13:26:45.300Z,1.33
2018-04-30T13:29:12.812Z,1.20
2018-04-30T13:31:41.077Z,1.30
2018-04-30T13:34:08.557Z,1.20
2018-04-30T13:36:36.033Z,1.30
2018-04-30T13:39:03.506Z,1.10
2018-04-30T13:41:30.997Z,1.50
2018-04-30T13:43:58.464Z,1.23
2018-04-30T13:46:25.960Z,1.23
2018-04-30T13:48:53.433Z,1.30
2018-04-30T13:51:20.922Z,1.10
2018-04-30T13:53:48.399Z,1.20
2018-04-30T13:56:15.866Z,1.50
2018-04-30T13:58:43.367Z,1.33
2018-04-30T14:01:10.850Z,1.27
2018-04-30T14:03:38.376Z,1.17
2018-04-30T14:06:05.889Z,1.00
2018-04-30T14:08:33.353Z,1.53
2018-04-30T14:11:00.863Z,1.23
2018-04-30T14:13:28.350Z,1.00
2018-04-30T14:15:55.874Z,1.53
2018-04-30T14:18:24.104Z,1.20
2018-04-30T14:20:52.382Z,1.00
2018-04-30T14:23:19.942Z,1.40
2018-04-30T14:25:47.423Z,1.50
2018-04-30T14:28:14.926Z,1.07
2018-04-30T14:30:42.442Z,1.07
2018-04-30T14:33:09.955Z,0.90
2018-04-30T14:35:37.441Z,0.90
2018-04-30T14:38:04.925Z,0.97
2018-04-30T14:40:32.425Z,1.07
2018-04-30T14:42:59.933Z,2.20
2018-04-30T14:45:27.437Z,1.20
2018-04-30T14:47:54.918Z,1.10
2018-04-30T14:50:23.176Z,0.90
2018-04-30T14:52:50.771Z,1.10
2018-04-30T14:55:18.275Z,1.00
2018-04-30T14:57:45.742Z,1.00
2018-04-30T15:00:13.260Z,0.90
2018-04-30T15:02:40.726Z,1.10
2018-04-30T15:05:08.207Z,1.10
2018-04-30T15:07:35.706Z,0.90
2018-04-30T15:10:03.196Z,1.20
2018-04-30T15:12:30.709Z,0.87
2018-04-30T15:14:58.177Z,1.00
2018-04-30T15:17:26.423Z,0.80
2018-04-30T15:19:53.907Z,0.80
2018-04-30T15:22:22.177Z,1.20
2018-04-30T15:24:50.448Z,0.90
2018-04-30T15:27:18.013Z,1.00
2018-04-30T15:29:45.561Z,1.10
2018-04-30T15:32:13.072Z,1.10
2018-04-30T15:34:40.563Z,1.00
2018-04-30T15:37:08.054Z,1.03
2018-04-30T15:39:36.433Z,1.30
2018-04-30T15:42:04.703Z,1.10
2018-04-30T15:44:32.162Z,1.20
2018-04-30T15:46:59.641Z,1.20
2018-04-30T15:49:27.126Z,1.07
2018-04-30T15:51:54.607Z,1.00
2018-04-30T15:54:22.086Z,1.10
2018-04-30T15:56:49.604Z,1.20
2018-04-30T15:59:17.132Z,1.30
2018-04-30T16:01:44.667Z,1.47
2018-04-30T16:04:12.922Z,1.10
2018-04-30T16:06:40.425Z,1.30
2018-04-30T16:09:07.931Z,1.40
2018-04-30T16:11:35.405Z,1.83
2018-04-30T16:14:02.967Z,1.87
2018-04-30T16:16:30.399Z,1.80
2018-04-30T16:18:57.863Z,3.53
2018-04-30T16:21:25.343Z,4.90
2018-04-30T16:23:53.592Z,3.70
2018-04-30T16:26:21.086Z,2.33
2018-04-30T16:28:48.592Z,1.60
2018-04-30T16:31:16.063Z,3.20
2018-04-30T16:33:43.573Z,1.80
2018-04-30T16:36:11.041Z,1.50
2018-04-30T16:38:38.548Z,1.73
2018-04-30T16:41:06.031Z,1.47
2018-04-30T16:43:34.270Z,1.27
2018-04-30T16:46:01.776Z,1.50
2018-04-30T16:48:30.013Z,1.83
2018-04-30T16:50:57.518Z,1.80
2018-04-30T16:53:25.002Z,1.43
2018-04-30T16:55:52.474Z,1.50
2018-04-30T16:58:19.976Z,1.50
2018-04-30T17:00:48.225Z,1.30
2018-04-30T17:03:16.090Z,1.40
2018-04-30T17:05:43.552Z,1.67
2018-04-30T17:08:11.038Z,1.20
2018-04-30T17:10:40.214Z,1.33
2018-04-30T17:13:07.619Z,1.57
2018-04-30T17:15:35.128Z,1.30
2018-04-30T17:18:02.643Z,1.30
2018-04-30T17:20:30.112Z,1.20
2018-04-30T17:22:57.589Z,1.27
2018-04-30T17:25:25.873Z,1.50
2018-04-30T17:27:53.369Z,3.27
2018-04-30T17:30:20.903Z,1.37
2018-04-30T17:32:48.324Z,1.30
2018-04-30T17:35:15.817Z,1.40
2018-04-30T17:37:43.295Z,1.30
2018-04-30T17:40:10.785Z,2.07
2018-04-30T17:42:38.280Z,1.33
2018-04-30T17:45:06.557Z,1.10
2018-04-30T17:47:34.830Z,1.30
2018-04-30T17:50:02.327Z,1.40
2018-04-30T17:52:29.846Z,1.50
2018-04-30T17:54:57.311Z,1.43
2018-04-30T17:57:24.775Z,4.30
2018-04-30T17:59:52.357Z,1.33
2018-04-30T18:02:19.733Z,1.50
2018-04-30T18:04:47.247Z,1.10
2018-04-30T18:07:15.478Z,1.73
2018-04-30T18:09:42.962Z,1.00
2018-04-30T18:12:10.465Z,1.13
2018-04-30T18:14:37.952Z,0.90
2018-04-30T18:17:05.486Z,1.23
2018-04-30T18:19:32.957Z,1.30
2018-04-30T18:22:00.455Z,1.10
2018-04-30T18:24:27.943Z,1.80
2018-04-30T18:26:55.440Z,1.10
2018-04-30T18:29:22.933Z,1.50
2018-04-30T18:31:50.401Z,1.37
2018-04-30T18:34:20.157Z,2.03
2018-04-30T18:36:47.916Z,1.40
2018-04-30T18:39:15.400Z,1.50
2018-04-30T18:41:42.903Z,2.00
2018-04-30T18:44:10.377Z,1.60
2018-04-30T18:46:37.873Z,1.73
2018-04-30T18:49:05.406Z,1.67
2018-04-30T18:51:32.968Z,1.80
2018-04-30T18:54:00.548Z,1.60
2018-04-30T18:56:29.089Z,1.70
2018-04-30T18:58:56.614Z,1.50
2018-04-30T19:01:25.612Z,1.40
2018-04-30T19:03:54.241Z,1.50
2018-04-30T19:06:21.718Z,1.50
2018-04-30T19:08:49.187Z,1.27
2018-04-30T19:11:16.741Z,1.50
2018-04-30T19:13:45.095Z,1.40
2018-04-30T19:16:12.598Z,1.53
2018-04-30T19:18:40.069Z,1.37
2018-04-30T19:21:08.404Z,1.43
2018-04-30T19:23:35.878Z,1.60
2018-04-30T19:26:03.420Z,1.60
2018-04-30T19:28:30.895Z,1.10
2018-04-30T19:30:58.378Z,1.37
2018-04-30T19:33:26.626Z,1.60
2018-04-30T19:35:54.124Z,1.40
2018-04-30T19:38:21.620Z,1.40
2018-04-30T19:40:49.110Z,1.70
2018-04-30T19:43:16.643Z,1.50
2018-04-30T19:45:44.145Z,1.10
2018-04-30T19:48:11.642Z,1.40
2018-04-30T19:50:39.168Z,1.87
2018-04-30T19:53:07.422Z,1.20
2018-04-30T19:55:35.014Z,1.40
2018-04-30T19:58:02.504Z,1.10
2018-04-30T20:00:30.009Z,1.13
2018-04-30T20:02:57.544Z,1.53
2018-04-30T20:05:25.022Z,1.40
2018-04-30T20:07:52.550Z,1.30
2018-04-30T20:10:20.070Z,1.10
2018-04-30T20:12:47.556Z,1.20
2018-04-30T20:15:15.784Z,1.20
2018-04-30T20:17:44.029Z,1.10
2018-04-30T20:20:11.793Z,1.37
2018-04-30T20:22:39.505Z,1.30
2018-04-30T20:25:06.995Z,1.10
2018-04-30T20:27:34.520Z,1.07
2018-04-30T20:30:02.015Z,1.30
2018-04-30T20:32:29.543Z,1.20
2018-04-30T20:34:57.033Z,1.20
2018-04-30T20:37:24.516Z,1.60
2018-04-30T20:39:52.235Z,1.17
2018-04-30T20:42:19.743Z,1.33
2018-04-30T20:44:47.240Z,1.23
2018-04-30T20:47:14.727Z,1.40
2018-04-30T20:49:42.206Z,1.10
2018-04-30T20:52:09.698Z,1.30
2018-04-30T20:54:37.262Z,1.10
2018-04-30T20:57:04.775Z,1.20
2018-04-30T20:59:32.247Z,1.00
2018-04-30T21:02:06.959Z,1.00
2018-04-30T21:04:34.442Z,1.10
2018-04-30T21:07:02.726Z,0.80
2018-04-30T21:09:31.236Z,1.00
2018-04-30T21:11:59.108Z,0.90
2018-04-30T21:14:26.611Z,1.00
2018-04-30T21:16:54.094Z,0.70
2018-04-30T21:19:21.578Z,0.80
2018-04-30T21:21:49.079Z,0.70
2018-04-30T21:24:17.390Z,0.77
2018-04-30T21:26:44.936Z,0.67
2018-04-30T21:29:12.422Z,0.70
2018-04-30T21:31:39.937Z,0.80
2018-04-30T21:34:07.428Z,1.00
2018-04-30T21:36:34.905Z,0.80
2018-04-30T21:39:02.454Z,0.70
2018-04-30T21:41:29.943Z,1.00
2018-04-30T21:43:57.475Z,0.80
2018-04-30T21:46:25.004Z,0.80
2018-04-30T21:48:53.423Z,0.80
2018-04-30T21:51:20.925Z,0.93
2018-04-30T21:53:48.467Z,0.90
2018-04-30T21:56:16.739Z,0.80
2018-04-30T21:58:44.225Z,0.80
2018-04-30T22:01:12.471Z,1.10
2018-04-30T22:03:39.944Z,0.83
2018-04-30T22:06:08.203Z,0.87
2018-04-30T22:08:35.680Z,0.90
2018-04-30T22:11:04.028Z,0.80
2018-04-30T22:13:31.554Z,0.90
2018-04-30T22:15:59.060Z,0.93
2018-04-30T22:18:29.347Z,0.90
2018-04-30T22:20:56.843Z,1.00
2018-04-30T22:23:24.335Z,1.10
2018-04-30T22:25:51.866Z,1.00
2018-04-30T22:28:19.362Z,0.80
2018-04-30T22:30:46.855Z,0.97
2018-04-30T22:33:14.331Z,1.07
2018-04-30T22:35:41.845Z,1.10
2018-04-30T22:38:09.335Z,1.00
2018-04-30T22:40:36.841Z,1.03
2018-04-30T22:43:04.309Z,1.17
2018-04-30T22:45:31.793Z,1.10
2018-04-30T22:47:59.305Z,1.00
2018-04-30T22:50:27.560Z,1.10
2018-04-30T22:52:55.090Z,1.10
2018-04-30T22:55:22.573Z,1.10
2018-04-30T22:57:50.064Z,1.40
2018-04-30T23:00:21.726Z,1.30
2018-04-30T23:02:49.213Z,1.30
2018-04-30T23:05:16.723Z,1.53
2018-04-30T23:07:44.213Z,1.33
2018-04-30T23:10:11.687Z,1.40
2018-04-30T23:12:39.169Z,1.30
2018-04-30T23:15:06.661Z,1.40
2018-04-30T23:17:34.145Z,1.60
2018-04-30T23:20:01.635Z,1.40
2018-04-30T23:22:37.980Z,1.60
2018-04-30T23:25:05.463Z,1.70
2018-04-30T23:27:32.958Z,1.73
2018-04-30T23:30:00.464Z,1.80
2018-04-30T23:32:27.954Z,1.50
2018-04-30T23:34:56.862Z,1.90
2018-04-30T23:37:25.175Z,1.80
2018-04-30T23:39:52.662Z,1.80
2018-04-30T23:42:20.225Z,2.00
2018-04-30T23:44:47.712Z,1.97
2018-04-30T23:47:15.961Z,2.10
2018-04-30T23:49:43.457Z,1.90
2018-04-30T23:52:10.935Z,2.10
2018-04-30T23:54:38.406Z,2.70
2018-04-30T23:57:06.664Z,2.43
2018-04-30T23:59:34.151Z,2.40
